Archival Weather

Al Kharj

Al Kharj, Saudi Arabia (OEKJ)

Report from: Thursday, February 22, 2024 10:00 AM UTC
Current time: Wednesday, April 24, 2024 6:33 PM UTC

Current weather – Weather history – Daily summaries
Weather forecast

Temperature24.0°C (75.2°F)
Dew point1.0°C (33.8°F)
Winds 9 kts (4.6 m/s, 10.4 mph) Southeast (140°)
Clouds Sky clear
Altimeter30.18 in.Hg (1022 mB)
Relative humidity22 %
Density altitude855 ft. (261 m)
Remarks Ceiling and visibility OK
Flight conditions Visual Meteorological Conditions
Raw dataOEKJ 221000Z 14009KT CAVOK 24/01 Q1022
An error has occurred. This application may no longer respond until reloaded. Reload 🗙